createdAt,value
2022-08-25T00:01:59.751Z,66.56
2022-08-25T00:04:27.673Z,67.11
2022-08-25T00:07:00.693Z,66.63
2022-08-25T00:09:30.951Z,66.73
2022-08-25T00:11:57.927Z,66.64
2022-08-25T00:14:30.876Z,66.91
2022-08-25T00:16:57.874Z,66.66
2022-08-25T00:19:28.243Z,66.67
2022-08-25T00:21:55.784Z,67.78
2022-08-25T00:24:23.012Z,67.21
2022-08-25T00:26:51.826Z,67.50
2022-08-25T00:29:18.930Z,67.47
2022-08-25T00:31:46.211Z,67.56
2022-08-25T00:34:15.966Z,67.39
2022-08-25T00:36:43.801Z,67.75
2022-08-25T00:39:11.538Z,67.81
2022-08-25T00:41:40.504Z,67.16
2022-08-25T00:44:09.485Z,67.13
2022-08-25T00:46:46.066Z,67.46
2022-08-25T00:49:20.856Z,67.42
2022-08-25T00:51:55.539Z,67.49
2022-08-25T00:54:29.266Z,67.71
2022-08-25T00:56:56.770Z,67.45
2022-08-25T00:59:23.911Z,67.25
2022-08-25T01:01:51.418Z,67.13
2022-08-25T01:04:18.825Z,67.19
2022-08-25T01:06:45.976Z,66.73
2022-08-25T01:09:14.072Z,66.81
2022-08-25T01:11:42.254Z,67.08
2022-08-25T01:14:09.275Z,66.71
2022-08-25T01:16:37.482Z,66.63
2022-08-25T01:19:08.122Z,66.81
2022-08-25T01:21:40.371Z,66.36
2022-08-25T01:24:07.507Z,66.35
2022-08-25T01:26:36.028Z,66.59
2022-08-25T01:29:21.103Z,66.83
2022-08-25T01:32:00.589Z,66.61
2022-08-25T01:34:32.993Z,66.63
2022-08-25T01:37:01.038Z,66.46
2022-08-25T01:39:31.046Z,66.46
2022-08-25T01:42:12.278Z,66.47
2022-08-25T01:44:44.326Z,66.97
2022-08-25T01:47:12.487Z,66.75
2022-08-25T01:49:39.524Z,66.79
2022-08-25T01:52:25.984Z,66.79
2022-08-25T01:54:53.015Z,66.50
2022-08-25T01:57:20.140Z,66.18
2022-08-25T01:59:47.705Z,66.31
2022-08-25T02:02:15.022Z,66.54
2022-08-25T02:04:45.535Z,66.26
2022-08-25T02:07:12.860Z,66.00
2022-08-25T02:09:39.805Z,66.49
2022-08-25T02:12:07.100Z,66.15
2022-08-25T02:14:35.724Z,65.90
2022-08-25T02:17:05.910Z,65.75
2022-08-25T02:19:33.183Z,66.01
2022-08-25T02:22:00.739Z,65.67
2022-08-25T02:24:27.720Z,65.98
2022-08-25T02:26:55.398Z,65.66
2022-08-25T02:29:22.368Z,65.46
2022-08-25T02:31:49.280Z,65.36
2022-08-25T02:34:16.528Z,65.06
2022-08-25T02:36:43.888Z,65.03
2022-08-25T02:39:11.460Z,65.01
2022-08-25T02:41:39.138Z,64.60
2022-08-25T02:44:06.476Z,65.10
2022-08-25T02:46:33.534Z,64.67
2022-08-25T02:49:00.712Z,64.79
2022-08-25T02:51:31.791Z,64.68
2022-08-25T02:54:02.251Z,64.63
2022-08-25T02:56:30.915Z,64.20
2022-08-25T02:58:58.253Z,64.33
2022-08-25T03:01:28.673Z,64.53
2022-08-25T03:03:57.046Z,64.24
2022-08-25T03:06:25.019Z,64.11
2022-08-25T03:08:53.406Z,63.80
2022-08-25T03:11:21.108Z,63.65
2022-08-25T03:13:51.218Z,63.64
2022-08-25T03:16:19.358Z,63.19
2022-08-25T03:18:46.706Z,63.71
2022-08-25T03:21:13.867Z,63.48
2022-08-25T03:23:43.662Z,63.60
2022-08-25T03:26:31.040Z,63.65
2022-08-25T03:28:58.997Z,63.33
2022-08-25T03:31:27.909Z,63.92
2022-08-25T03:33:55.742Z,63.71
2022-08-25T03:36:23.225Z,63.98
2022-08-25T03:38:51.036Z,64.08
2022-08-25T03:41:23.450Z,64.23
2022-08-25T03:43:53.639Z,64.04
2022-08-25T03:46:25.429Z,64.12
2022-08-25T03:48:52.709Z,63.74
2022-08-25T03:51:24.408Z,63.51
2022-08-25T03:53:53.228Z,63.66
2022-08-25T03:56:20.237Z,63.54
2022-08-25T03:58:48.000Z,63.15
2022-08-25T04:01:16.152Z,63.47
2022-08-25T04:03:45.573Z,63.17
2022-08-25T04:06:12.780Z,62.86
2022-08-25T04:08:39.794Z,63.50
2022-08-25T04:11:11.847Z,62.98
2022-08-25T04:13:39.120Z,62.74
2022-08-25T04:16:18.679Z,62.65
2022-08-25T04:18:46.661Z,62.54
2022-08-25T04:21:14.268Z,62.61
2022-08-25T04:23:42.705Z,62.36
2022-08-25T04:26:14.732Z,62.83
2022-08-25T04:28:41.900Z,62.53
2022-08-25T04:31:11.889Z,62.93
2022-08-25T04:33:40.348Z,62.58
2022-08-25T04:36:12.385Z,62.97
2022-08-25T04:38:42.053Z,62.47
2022-08-25T04:41:10.853Z,62.82
2022-08-25T04:43:39.918Z,62.84
2022-08-25T04:46:20.186Z,63.23
2022-08-25T04:48:52.898Z,62.52
2022-08-25T04:51:28.035Z,62.78
2022-08-25T04:53:55.981Z,62.36
2022-08-25T04:56:25.184Z,62.45
2022-08-25T04:58:54.573Z,62.56
2022-08-25T05:01:24.669Z,62.75
2022-08-25T05:03:57.355Z,62.33
2022-08-25T05:06:24.369Z,62.33
2022-08-25T05:08:51.689Z,61.90
2022-08-25T05:11:19.418Z,62.41
2022-08-25T05:13:51.328Z,61.92
2022-08-25T05:16:20.082Z,62.10
2022-08-25T05:18:48.030Z,62.33
2022-08-25T05:21:17.740Z,61.92
2022-08-25T05:23:44.735Z,62.13
2022-08-25T05:26:21.047Z,62.10
2022-08-25T05:28:49.992Z,61.90
2022-08-25T05:31:17.304Z,61.95
2022-08-25T05:33:44.589Z,62.45
2022-08-25T05:36:13.307Z,62.11
2022-08-25T05:38:41.905Z,62.49
2022-08-25T05:41:11.007Z,62.69
2022-08-25T05:43:38.700Z,62.25
2022-08-25T05:46:05.983Z,62.24
2022-08-25T05:48:33.568Z,62.63
2022-08-25T05:51:01.834Z,62.26
2022-08-25T05:53:31.030Z,62.53
2022-08-25T05:56:01.535Z,62.49
2022-08-25T05:58:29.378Z,63.15
2022-08-25T06:00:57.329Z,62.80
2022-08-25T06:03:24.536Z,62.85
2022-08-25T06:05:51.505Z,62.98
2022-08-25T06:08:19.574Z,63.52
2022-08-25T06:10:51.807Z,63.29
2022-08-25T06:13:18.878Z,63.34
2022-08-25T06:16:00.606Z,63.51
2022-08-25T06:18:27.597Z,63.50
2022-08-25T06:20:54.558Z,63.82
2022-08-25T06:23:21.886Z,64.04
2022-08-25T06:25:53.190Z,63.85
2022-08-25T06:28:21.138Z,63.95
2022-08-25T06:30:48.176Z,64.08
2022-08-25T06:33:15.260Z,63.91
2022-08-25T06:35:43.292Z,63.64
2022-08-25T06:38:11.062Z,64.12
2022-08-25T06:40:38.143Z,64.22
2022-08-25T06:43:08.920Z,64.37
2022-08-25T06:45:36.023Z,63.80
2022-08-25T06:48:06.074Z,63.97
2022-08-25T06:50:33.400Z,63.92
2022-08-25T06:53:00.949Z,64.29
2022-08-25T06:55:27.896Z,64.06
2022-08-25T06:57:55.226Z,63.91
2022-08-25T07:00:23.084Z,63.02
2022-08-25T07:02:59.131Z,63.05
2022-08-25T07:05:40.819Z,62.59
2022-08-25T07:08:13.190Z,62.12
2022-08-25T07:10:40.415Z,61.91
2022-08-25T07:13:07.340Z,61.77
2022-08-25T07:15:38.742Z,61.38
2022-08-25T07:18:06.210Z,61.00
2022-08-25T07:20:36.483Z,60.76
2022-08-25T07:23:12.739Z,60.16
2022-08-25T07:25:39.923Z,59.26
2022-08-25T07:28:06.889Z,58.74
2022-08-25T07:30:38.545Z,58.10
2022-08-25T07:33:12.997Z,57.67
2022-08-25T07:35:41.186Z,56.94
2022-08-25T07:38:13.050Z,56.83
2022-08-25T07:40:51.103Z,56.10
2022-08-25T07:43:21.594Z,55.80
2022-08-25T07:45:51.693Z,55.59
2022-08-25T07:48:41.668Z,55.28
2022-08-25T07:51:14.481Z,54.59
2022-08-25T07:53:41.768Z,54.17
2022-08-25T07:56:13.316Z,54.22
2022-08-25T07:58:41.167Z,53.64
2022-08-25T08:01:13.436Z,53.18
2022-08-25T08:03:50.370Z,53.54
2022-08-25T08:06:22.787Z,52.92
2022-08-25T08:08:54.530Z,52.67
2022-08-25T08:11:30.814Z,52.98
2022-08-25T08:13:59.963Z,52.49
2022-08-25T08:16:30.229Z,51.88
2022-08-25T08:18:59.256Z,51.59
2022-08-25T08:21:33.974Z,51.58
2022-08-25T08:24:02.071Z,51.46
2022-08-25T08:26:55.156Z,51.17
2022-08-25T08:29:21.835Z,50.93
2022-08-25T08:31:49.554Z,50.65
2022-08-25T08:34:17.042Z,50.78
2022-08-25T08:36:45.366Z,50.45
2022-08-25T08:39:12.509Z,50.05
2022-08-25T08:42:17.488Z,49.75
2022-08-25T08:44:57.037Z,49.92
2022-08-25T08:47:59.075Z,49.68
2022-08-25T08:50:55.704Z,49.49
2022-08-25T08:53:42.370Z,49.44
2022-08-25T08:56:15.097Z,49.65
2022-08-25T08:58:54.507Z,49.04
2022-08-25T09:02:02.084Z,48.50
2022-08-25T09:04:49.982Z,49.23
2022-08-25T09:07:30.919Z,48.88
2022-08-25T09:10:05.066Z,48.66
2022-08-25T09:12:48.287Z,47.67
2022-08-25T09:15:22.930Z,48.08
2022-08-25T09:18:31.101Z,48.03
2022-08-25T09:21:31.578Z,47.97
2022-08-25T09:24:28.029Z,47.66
2022-08-25T09:27:19.288Z,47.61
2022-08-25T09:30:05.812Z,47.61
2022-08-25T09:32:49.019Z,47.29
2022-08-25T09:35:28.130Z,47.99
2022-08-25T09:38:07.861Z,47.67
2022-08-25T09:40:37.833Z,47.39
2022-08-25T09:43:09.572Z,47.27
2022-08-25T09:45:45.678Z,47.64
2022-08-25T09:48:41.013Z,46.50
2022-08-25T09:51:38.138Z,46.47
2022-08-25T09:54:12.591Z,45.93
2022-08-25T09:57:01.202Z,46.12
2022-08-25T09:59:35.873Z,46.09
2022-08-25T10:02:21.269Z,46.10
2022-08-25T10:04:48.458Z,46.19
2022-08-25T10:07:29.125Z,45.23
2022-08-25T10:10:01.688Z,45.59
2022-08-25T10:12:42.948Z,45.57
2022-08-25T10:15:29.373Z,45.93
2022-08-25T10:18:17.840Z,45.19
2022-08-25T10:20:45.144Z,45.38
2022-08-25T10:23:14.421Z,45.28
2022-08-25T10:25:57.684Z,44.77
2022-08-25T10:28:35.614Z,44.74
2022-08-25T10:31:05.819Z,44.34
2022-08-25T10:33:51.431Z,44.14
2022-08-25T10:36:47.041Z,43.74
2022-08-25T10:39:40.692Z,43.49
2022-08-25T10:42:19.984Z,43.73
2022-08-25T10:45:37.902Z,43.76
2022-08-25T10:48:26.013Z,43.58
2022-08-25T10:51:23.705Z,43.65
2022-08-25T10:54:16.134Z,43.16
2022-08-25T10:57:12.047Z,43.30
2022-08-25T11:00:06.033Z,42.41
2022-08-25T11:03:11.875Z,42.39
2022-08-25T11:05:45.753Z,42.49
2022-08-25T11:08:21.536Z,41.65
2022-08-25T11:10:54.815Z,41.41
2022-08-25T11:13:30.453Z,41.94
2022-08-25T11:16:17.396Z,41.75
2022-08-25T11:18:57.577Z,41.71
2022-08-25T11:21:29.520Z,41.80
2022-08-25T11:24:11.115Z,41.57
2022-08-25T11:26:38.426Z,41.75
2022-08-25T11:29:16.646Z,41.52
2022-08-25T11:31:53.899Z,41.44
2022-08-25T11:34:21.849Z,41.58
2022-08-25T11:36:55.426Z,42.00
2022-08-25T11:39:37.901Z,42.24
2022-08-25T11:42:17.399Z,42.54
2022-08-25T11:45:03.945Z,42.19
2022-08-25T11:47:35.248Z,43.33
2022-08-25T11:50:06.641Z,43.25
2022-08-25T11:52:34.829Z,43.56
2022-08-25T11:55:22.779Z,42.78
2022-08-25T11:57:53.606Z,41.77
2022-08-25T12:00:41.022Z,41.66
2022-08-25T12:03:34.097Z,40.98
2022-08-25T12:06:19.283Z,39.97
2022-08-25T12:08:54.331Z,40.18
2022-08-25T12:11:51.562Z,40.22
2022-08-25T12:14:37.391Z,40.84
2022-08-25T12:17:12.196Z,40.56
2022-08-25T12:19:40.190Z,40.22
2022-08-25T12:22:09.194Z,39.84
2022-08-25T12:24:47.897Z,38.83
2022-08-25T12:27:34.061Z,39.01
2022-08-25T12:30:21.599Z,39.46
2022-08-25T12:33:14.170Z,40.04
2022-08-25T12:35:56.240Z,39.69
2022-08-25T12:38:43.279Z,39.39
2022-08-25T12:41:18.907Z,39.26
2022-08-25T12:43:49.238Z,38.41
2022-08-25T12:46:29.844Z,38.06
2022-08-25T12:49:15.481Z,38.79
2022-08-25T12:51:51.163Z,38.26
2022-08-25T15:49:04.803Z,36.90
2022-08-25T15:51:35.128Z,37.62
2022-08-25T15:54:02.649Z,37.47
2022-08-25T15:56:33.714Z,37.67
2022-08-25T15:59:01.793Z,37.41
2022-08-25T16:01:30.703Z,37.61
2022-08-25T16:03:57.807Z,37.12
2022-08-25T16:06:27.822Z,37.30
2022-08-25T16:08:54.849Z,37.45
2022-08-25T16:11:24.801Z,37.53
2022-08-25T16:13:52.843Z,37.28
2022-08-25T16:16:21.657Z,37.18
2022-08-25T16:18:48.759Z,37.90
2022-08-25T16:21:20.152Z,37.34
2022-08-25T16:23:47.274Z,37.67
2022-08-25T16:26:16.560Z,37.53
2022-08-25T16:28:44.981Z,37.40
2022-08-25T16:31:13.806Z,38.53
2022-08-25T16:36:11.825Z,38.25
2022-08-25T16:38:40.638Z,37.88
2022-08-25T16:41:18.443Z,38.34
2022-08-25T16:43:45.787Z,38.81
2022-08-25T16:46:14.587Z,38.53
2022-08-25T16:48:42.019Z,38.48
2022-08-25T16:51:14.528Z,39.11
2022-08-25T16:54:00.610Z,38.31
2022-08-25T16:56:28.964Z,38.35
2022-08-25T16:59:00.856Z,39.15
2022-08-25T17:01:34.439Z,38.81
2022-08-25T17:04:01.815Z,39.46
2022-08-25T17:06:34.432Z,39.74
2022-08-25T17:09:02.024Z,40.06
2022-08-25T17:11:35.120Z,40.17
2022-08-25T17:14:06.813Z,40.51
2022-08-25T17:16:38.363Z,40.64
2022-08-25T17:19:08.728Z,40.48
2022-08-25T17:21:45.159Z,40.96
2022-08-25T17:24:13.502Z,40.51
2022-08-25T17:26:42.016Z,40.25
2022-08-25T17:29:09.403Z,40.85
2022-08-25T17:31:39.853Z,40.56
2022-08-25T17:34:10.450Z,41.24
2022-08-25T17:36:38.118Z,40.17
2022-08-25T17:39:07.770Z,40.44
2022-08-25T17:41:37.782Z,40.06
2022-08-25T17:44:05.039Z,40.05
2022-08-25T17:46:32.601Z,40.39
2022-08-25T17:49:00.039Z,40.58
2022-08-25T17:51:27.077Z,40.96
2022-08-25T17:53:59.121Z,41.24
2022-08-25T17:56:27.270Z,41.44
2022-08-25T17:58:57.763Z,41.33
2022-08-25T18:01:27.526Z,41.07
2022-08-25T18:03:54.860Z,40.65
2022-08-25T18:06:23.446Z,40.71
2022-08-25T18:08:52.989Z,41.28
2022-08-25T18:11:21.630Z,41.37
2022-08-25T18:13:50.435Z,41.42
2022-08-25T18:16:17.852Z,41.61
2022-08-25T18:18:44.810Z,41.77
2022-08-25T18:21:16.796Z,41.86
2022-08-25T18:23:44.435Z,41.94
2022-08-25T18:26:12.817Z,41.72
2022-08-25T18:28:40.099Z,41.32
2022-08-25T18:31:13.131Z,41.55
2022-08-25T18:33:44.672Z,41.57
2022-08-25T18:36:12.376Z,41.17
2022-08-25T18:38:59.099Z,41.38
2022-08-25T18:41:27.206Z,42.22
2022-08-25T18:43:54.754Z,42.66
2022-08-25T18:46:22.672Z,42.98
2022-08-25T18:48:52.799Z,43.57
2022-08-25T18:51:23.131Z,43.87
2022-08-25T18:53:54.586Z,44.13
2022-08-25T18:56:26.652Z,45.38
2022-08-25T18:58:53.770Z,45.81
2022-08-25T19:01:21.437Z,46.94
2022-08-25T19:03:48.850Z,47.15
2022-08-25T19:06:16.548Z,47.57
2022-08-25T19:08:44.686Z,48.06
2022-08-25T19:11:12.386Z,48.53
2022-08-25T19:13:39.638Z,48.68
2022-08-25T19:16:20.820Z,49.20
2022-08-25T19:18:50.530Z,49.63
2022-08-25T19:21:22.552Z,49.77
2022-08-25T19:23:51.634Z,49.56
2022-08-25T19:26:20.307Z,50.42
2022-08-25T19:28:49.657Z,50.69
2022-08-25T19:31:20.219Z,51.29
2022-08-25T19:33:52.660Z,51.81
2022-08-25T19:36:24.495Z,52.89
2022-08-25T19:38:58.926Z,53.68
2022-08-25T19:41:28.284Z,53.99
2022-08-25T19:43:57.640Z,55.16
2022-08-25T19:46:35.520Z,55.00
2022-08-25T19:49:15.075Z,55.05
2022-08-25T19:51:50.575Z,55.41
2022-08-25T19:54:37.184Z,55.53
2022-08-25T19:57:07.890Z,55.72
2022-08-25T19:59:43.537Z,56.00
2022-08-25T20:02:26.143Z,56.04
2022-08-25T20:05:00.064Z,56.66
2022-08-25T20:07:32.634Z,56.97
2022-08-25T20:10:00.953Z,56.91
2022-08-25T20:12:29.277Z,57.23
2022-08-25T20:14:57.465Z,57.11
2022-08-25T20:17:28.516Z,57.93
2022-08-25T20:20:00.502Z,58.23
2022-08-25T20:22:30.417Z,58.56
2022-08-25T20:25:01.744Z,58.97
2022-08-25T20:27:35.152Z,58.86
2022-08-25T20:30:05.081Z,59.65
2022-08-25T20:32:33.822Z,59.90
2022-08-25T20:35:02.089Z,60.74
2022-08-25T20:37:29.738Z,60.91
2022-08-25T20:39:56.999Z,61.65
2022-08-25T20:42:24.261Z,62.19
2022-08-25T20:44:52.443Z,62.23
2022-08-25T20:47:22.771Z,62.03
2022-08-25T20:49:50.276Z,62.36
2022-08-25T20:52:18.601Z,62.53
2022-08-25T20:54:46.895Z,62.29
2022-08-25T20:57:17.825Z,62.23
2022-08-25T20:59:44.837Z,62.56
2022-08-25T21:02:14.033Z,62.37
2022-08-25T21:04:50.224Z,63.26
2022-08-25T21:07:18.706Z,62.92
2022-08-25T21:09:46.272Z,63.28
2022-08-25T21:12:16.106Z,63.50
2022-08-25T21:14:44.039Z,63.40
2022-08-25T21:17:12.695Z,63.68
2022-08-25T21:19:40.240Z,63.92
2022-08-25T21:22:09.545Z,64.04
2022-08-25T21:24:38.497Z,63.84
2022-08-25T21:27:05.620Z,64.11
2022-08-25T21:29:33.345Z,64.51
2022-08-25T21:32:00.876Z,64.43
2022-08-25T21:34:29.002Z,64.49
2022-08-25T21:36:58.191Z,64.99
2022-08-25T21:39:28.157Z,64.37
2022-08-25T21:41:56.659Z,64.75
2022-08-25T21:44:23.904Z,65.13
2022-08-25T21:46:54.170Z,65.45
2022-08-25T21:49:22.530Z,65.36
2022-08-25T21:51:59.570Z,65.59
2022-08-25T21:54:29.045Z,66.34
2022-08-25T21:57:06.835Z,66.19
2022-08-25T21:59:36.259Z,66.40
2022-08-25T22:02:08.981Z,66.61
2022-08-25T22:04:37.186Z,66.76
2022-08-25T22:07:06.909Z,67.01
2022-08-25T22:09:34.318Z,67.35
2022-08-25T22:12:03.816Z,67.02
2022-08-25T22:14:31.547Z,67.44
2022-08-25T22:16:59.743Z,67.53
2022-08-25T22:19:26.826Z,67.40
2022-08-25T22:21:54.706Z,67.75
2022-08-25T22:24:21.768Z,68.01
2022-08-25T22:26:49.234Z,68.05
2022-08-25T22:29:25.403Z,68.21
2022-08-25T22:31:59.604Z,68.59
2022-08-25T22:34:30.593Z,68.27
2022-08-25T22:37:00.270Z,68.61
2022-08-25T22:39:27.541Z,68.54
2022-08-25T22:41:54.504Z,68.26
2022-08-25T22:44:23.416Z,68.85
2022-08-25T22:46:50.437Z,68.51
2022-08-25T22:49:17.905Z,69.29
2022-08-25T22:51:47.087Z,69.30
2022-08-25T22:54:15.273Z,68.97
2022-08-25T22:56:42.489Z,68.97
2022-08-25T22:59:12.192Z,68.67
2022-08-25T23:01:39.619Z,69.38
2022-08-25T23:04:07.090Z,68.85
2022-08-25T23:06:36.786Z,69.05
2022-08-25T23:09:06.552Z,69.14
2022-08-25T23:11:33.570Z,68.81
2022-08-25T23:14:00.942Z,68.73
2022-08-25T23:16:28.741Z,69.14
2022-08-25T23:18:55.740Z,69.27
2022-08-25T23:21:42.545Z,68.54
2022-08-25T23:24:11.143Z,69.04
2022-08-25T23:26:41.811Z,68.97
2022-08-25T23:29:17.784Z,69.02
2022-08-25T23:31:46.805Z,69.20
2022-08-25T23:34:15.784Z,68.62
2022-08-25T23:36:43.369Z,69.07
2022-08-25T23:39:10.999Z,68.88
2022-08-25T23:41:38.216Z,69.31
2022-08-25T23:44:05.784Z,68.99
2022-08-25T23:46:35.840Z,69.15
2022-08-25T23:49:08.253Z,69.12
2022-08-25T23:51:37.969Z,69.49
2022-08-25T23:54:09.202Z,68.76
2022-08-25T23:56:36.922Z,68.67
2022-08-25T23:59:10.887Z,68.88
